sensor_id;sensor_type;location;lat;lon;timestamp;P1;durP1;ratioP1;P2;durP2;ratioP2
35990;SDS011;22064;42.672;23.282;2023-06-05T00:00:00;23.45;;;11.20;;
35990;SDS011;22064;42.672;23.282;2023-06-05T00:02:29;22.48;;;10.93;;
35990;SDS011;22064;42.672;23.282;2023-06-05T00:04:55;22.25;;;11.30;;
35990;SDS011;22064;42.672;23.282;2023-06-05T00:07:24;21.58;;;11.25;;
35990;SDS011;22064;42.672;23.282;2023-06-05T00:09:50;23.50;;;11.57;;
35990;SDS011;22064;42.672;23.282;2023-06-05T00:12:16;25.35;;;11.95;;
35990;SDS011;22064;42.672;23.282;2023-06-05T00:14:42;22.00;;;11.60;;
35990;SDS011;22064;42.672;23.282;2023-06-05T00:17:09;21.50;;;11.02;;
35990;SDS011;22064;42.672;23.282;2023-06-05T00:19:35;23.17;;;11.52;;
35990;SDS011;22064;42.672;23.282;2023-06-05T00:22:01;26.05;;;11.40;;
35990;SDS011;22064;42.672;23.282;2023-06-05T00:24:27;23.10;;;11.73;;
35990;SDS011;22064;42.672;23.282;2023-06-05T00:26:53;19.92;;;10.88;;
35990;SDS011;22064;42.672;23.282;2023-06-05T00:29:19;23.00;;;11.20;;
35990;SDS011;22064;42.672;23.282;2023-06-05T00:31:45;22.23;;;10.25;;
35990;SDS011;22064;42.672;23.282;2023-06-05T00:34:12;20.98;;;11.77;;
35990;SDS011;22064;42.672;23.282;2023-06-05T00:36:39;20.83;;;10.75;;
35990;SDS011;22064;42.672;23.282;2023-06-05T00:39:07;24.00;;;11.45;;
35990;SDS011;22064;42.672;23.282;2023-06-05T00:41:36;25.27;;;12.83;;
35990;SDS011;22064;42.672;23.282;2023-06-05T00:44:03;25.30;;;12.65;;
35990;SDS011;22064;42.672;23.282;2023-06-05T00:46:29;23.83;;;13.05;;
35990;SDS011;22064;42.672;23.282;2023-06-05T00:48:55;28.23;;;14.43;;
35990;SDS011;22064;42.672;23.282;2023-06-05T00:51:21;25.70;;;13.23;;
35990;SDS011;22064;42.672;23.282;2023-06-05T00:53:47;27.38;;;14.30;;
35990;SDS011;22064;42.672;23.282;2023-06-05T00:56:13;27.10;;;13.23;;
35990;SDS011;22064;42.672;23.282;2023-06-05T00:58:39;27.98;;;13.43;;
35990;SDS011;22064;42.672;23.282;2023-06-05T01:01:06;26.23;;;13.40;;
35990;SDS011;22064;42.672;23.282;2023-06-05T01:03:36;26.23;;;13.38;;
35990;SDS011;22064;42.672;23.282;2023-06-05T01:06:05;29.25;;;13.60;;
35990;SDS011;22064;42.672;23.282;2023-06-05T01:08:34;30.08;;;14.07;;
35990;SDS011;22064;42.672;23.282;2023-06-05T01:11:13;27.00;;;13.98;;
35990;SDS011;22064;42.672;23.282;2023-06-05T01:13:57;36.38;;;15.10;;
35990;SDS011;22064;42.672;23.282;2023-06-05T01:16:26;31.27;;;14.88;;
35990;SDS011;22064;42.672;23.282;2023-06-05T01:18:57;32.55;;;15.38;;
35990;SDS011;22064;42.672;23.282;2023-06-05T01:21:31;28.40;;;13.77;;
35990;SDS011;22064;42.672;23.282;2023-06-05T01:23:58;28.25;;;13.45;;
35990;SDS011;22064;42.672;23.282;2023-06-05T01:26:34;27.30;;;13.75;;
35990;SDS011;22064;42.672;23.282;2023-06-05T01:29:06;27.42;;;13.48;;
35990;SDS011;22064;42.672;23.282;2023-06-05T01:31:36;28.13;;;12.43;;
35990;SDS011;22064;42.672;23.282;2023-06-05T01:34:05;29.48;;;13.15;;
35990;SDS011;22064;42.672;23.282;2023-06-05T01:36:36;23.05;;;12.25;;
35990;SDS011;22064;42.672;23.282;2023-06-05T01:39:04;23.70;;;13.18;;
35990;SDS011;22064;42.672;23.282;2023-06-05T01:41:31;25.10;;;12.52;;
35990;SDS011;22064;42.672;23.282;2023-06-05T01:43:58;25.23;;;12.80;;
35990;SDS011;22064;42.672;23.282;2023-06-05T01:46:26;22.80;;;11.45;;
35990;SDS011;22064;42.672;23.282;2023-06-05T01:48:52;26.75;;;11.98;;
35990;SDS011;22064;42.672;23.282;2023-06-05T01:51:19;23.73;;;11.75;;
35990;SDS011;22064;42.672;23.282;2023-06-05T01:53:45;21.70;;;11.30;;
35990;SDS011;22064;42.672;23.282;2023-06-05T01:56:15;22.27;;;12.35;;
35990;SDS011;22064;42.672;23.282;2023-06-05T01:58:46;23.67;;;12.13;;
35990;SDS011;22064;42.672;23.282;2023-06-05T02:01:13;25.00;;;13.32;;
35990;SDS011;22064;42.672;23.282;2023-06-05T02:03:41;26.08;;;13.73;;
35990;SDS011;22064;42.672;23.282;2023-06-05T02:06:16;29.55;;;15.18;;
35990;SDS011;22064;42.672;23.282;2023-06-05T02:08:42;27.75;;;14.75;;
35990;SDS011;22064;42.672;23.282;2023-06-05T02:11:08;30.45;;;15.70;;
35990;SDS011;22064;42.672;23.282;2023-06-05T02:13:40;28.90;;;14.90;;
35990;SDS011;22064;42.672;23.282;2023-06-05T02:16:08;30.57;;;15.03;;
35990;SDS011;22064;42.672;23.282;2023-06-05T02:18:35;31.27;;;15.90;;
35990;SDS011;22064;42.672;23.282;2023-06-05T02:21:03;34.08;;;16.00;;
35990;SDS011;22064;42.672;23.282;2023-06-05T02:23:29;31.60;;;15.18;;
35990;SDS011;22064;42.672;23.282;2023-06-05T02:25:55;27.23;;;14.48;;
35990;SDS011;22064;42.672;23.282;2023-06-05T02:28:22;27.50;;;13.35;;
35990;SDS011;22064;42.672;23.282;2023-06-05T02:30:47;26.23;;;13.60;;
35990;SDS011;22064;42.672;23.282;2023-06-05T02:33:14;23.48;;;12.57;;
35990;SDS011;22064;42.672;23.282;2023-06-05T02:35:40;26.60;;;12.50;;
35990;SDS011;22064;42.672;23.282;2023-06-05T02:38:09;25.27;;;12.52;;
35990;SDS011;22064;42.672;23.282;2023-06-05T02:40:38;24.98;;;12.15;;
35990;SDS011;22064;42.672;23.282;2023-06-05T02:43:05;26.17;;;13.10;;
35990;SDS011;22064;42.672;23.282;2023-06-05T02:45:35;26.88;;;13.55;;
35990;SDS011;22064;42.672;23.282;2023-06-05T02:48:00;28.92;;;13.70;;
35990;SDS011;22064;42.672;23.282;2023-06-05T02:50:28;31.73;;;14.63;;
35990;SDS011;22064;42.672;23.282;2023-06-05T02:52:56;31.17;;;15.38;;
35990;SDS011;22064;42.672;23.282;2023-06-05T02:55:28;34.40;;;15.48;;
35990;SDS011;22064;42.672;23.282;2023-06-05T02:57:57;31.38;;;15.23;;
35990;SDS011;22064;42.672;23.282;2023-06-05T03:00:31;29.00;;;14.40;;
35990;SDS011;22064;42.672;23.282;2023-06-05T03:02:57;29.85;;;13.93;;
35990;SDS011;22064;42.672;23.282;2023-06-05T03:05:29;26.92;;;13.93;;
35990;SDS011;22064;42.672;23.282;2023-06-05T03:08:01;31.27;;;14.88;;
35990;SDS011;22064;42.672;23.282;2023-06-05T03:10:27;34.97;;;16.75;;
35990;SDS011;22064;42.672;23.282;2023-06-05T03:12:54;37.35;;;16.25;;
35990;SDS011;22064;42.672;23.282;2023-06-05T03:15:21;31.60;;;15.77;;
35990;SDS011;22064;42.672;23.282;2023-06-05T03:17:50;30.70;;;15.25;;
35990;SDS011;22064;42.672;23.282;2023-06-05T03:20:18;33.45;;;16.25;;
35990;SDS011;22064;42.672;23.282;2023-06-05T03:22:45;31.25;;;16.27;;
35990;SDS011;22064;42.672;23.282;2023-06-05T03:25:11;33.35;;;16.48;;
35990;SDS011;22064;42.672;23.282;2023-06-05T03:27:39;36.47;;;16.90;;
35990;SDS011;22064;42.672;23.282;2023-06-05T03:30:07;33.55;;;15.90;;
35990;SDS011;22064;42.672;23.282;2023-06-05T03:32:40;34.75;;;16.23;;
35990;SDS011;22064;42.672;23.282;2023-06-05T03:35:07;35.38;;;17.10;;
35990;SDS011;22064;42.672;23.282;2023-06-05T03:37:35;34.05;;;17.05;;
35990;SDS011;22064;42.672;23.282;2023-06-05T03:40:01;37.30;;;18.80;;
35990;SDS011;22064;42.672;23.282;2023-06-05T03:42:27;36.83;;;18.17;;
35990;SDS011;22064;42.672;23.282;2023-06-05T03:44:53;39.00;;;19.60;;
35990;SDS011;22064;42.672;23.282;2023-06-05T03:47:20;37.92;;;17.63;;
35990;SDS011;22064;42.672;23.282;2023-06-05T03:49:48;36.35;;;17.92;;
35990;SDS011;22064;42.672;23.282;2023-06-05T03:52:17;32.40;;;17.40;;
35990;SDS011;22064;42.672;23.282;2023-06-05T03:54:49;39.40;;;20.13;;
35990;SDS011;22064;42.672;23.282;2023-06-05T03:57:21;36.55;;;18.63;;
35990;SDS011;22064;42.672;23.282;2023-06-05T03:59:49;34.03;;;17.45;;
35990;SDS011;22064;42.672;23.282;2023-06-05T04:02:15;31.80;;;17.42;;
35990;SDS011;22064;42.672;23.282;2023-06-05T04:04:41;29.95;;;16.60;;
35990;SDS011;22064;42.672;23.282;2023-06-05T04:07:07;24.70;;;13.63;;
35990;SDS011;22064;42.672;23.282;2023-06-05T04:09:34;26.98;;;13.13;;
35990;SDS011;22064;42.672;23.282;2023-06-05T04:12:00;23.83;;;12.77;;
35990;SDS011;22064;42.672;23.282;2023-06-05T04:14:28;25.17;;;12.30;;
35990;SDS011;22064;42.672;23.282;2023-06-05T04:16:54;23.38;;;12.63;;
35990;SDS011;22064;42.672;23.282;2023-06-05T04:19:23;26.27;;;13.52;;
35990;SDS011;22064;42.672;23.282;2023-06-05T04:21:52;24.75;;;13.05;;
35990;SDS011;22064;42.672;23.282;2023-06-05T04:24:18;27.08;;;14.00;;
35990;SDS011;22064;42.672;23.282;2023-06-05T04:26:44;26.67;;;13.95;;
35990;SDS011;22064;42.672;23.282;2023-06-05T04:29:10;27.20;;;14.18;;
35990;SDS011;22064;42.672;23.282;2023-06-05T04:31:42;24.40;;;13.20;;
35990;SDS011;22064;42.672;23.282;2023-06-05T04:34:11;25.10;;;13.83;;
35990;SDS011;22064;42.672;23.282;2023-06-05T04:36:37;26.50;;;13.95;;
35990;SDS011;22064;42.672;23.282;2023-06-05T04:39:04;30.58;;;15.30;;
35990;SDS011;22064;42.672;23.282;2023-06-05T04:41:30;30.17;;;14.68;;
35990;SDS011;22064;42.672;23.282;2023-06-05T04:44:00;28.25;;;15.45;;
35990;SDS011;22064;42.672;23.282;2023-06-05T04:46:28;28.52;;;14.88;;
35990;SDS011;22064;42.672;23.282;2023-06-05T04:48:54;28.70;;;16.15;;
35990;SDS011;22064;42.672;23.282;2023-06-05T04:51:23;27.88;;;14.88;;
35990;SDS011;22064;42.672;23.282;2023-06-05T04:53:50;29.15;;;15.88;;
35990;SDS011;22064;42.672;23.282;2023-06-05T04:56:19;30.38;;;15.80;;
35990;SDS011;22064;42.672;23.282;2023-06-05T04:58:47;27.98;;;15.57;;
35990;SDS011;22064;42.672;23.282;2023-06-05T05:01:16;29.92;;;16.95;;
35990;SDS011;22064;42.672;23.282;2023-06-05T05:03:42;32.67;;;17.13;;
35990;SDS011;22064;42.672;23.282;2023-06-05T05:06:11;31.38;;;16.58;;
35990;SDS011;22064;42.672;23.282;2023-06-05T05:08:40;30.00;;;16.08;;
35990;SDS011;22064;42.672;23.282;2023-06-05T05:11:06;28.02;;;14.88;;
35990;SDS011;22064;42.672;23.282;2023-06-05T05:13:32;29.63;;;17.33;;
35990;SDS011;22064;42.672;23.282;2023-06-05T05:15:58;26.45;;;15.88;;
35990;SDS011;22064;42.672;23.282;2023-06-05T05:18:24;30.02;;;16.13;;
35990;SDS011;22064;42.672;23.282;2023-06-05T05:20:50;27.80;;;15.75;;
35990;SDS011;22064;42.672;23.282;2023-06-05T05:23:17;25.38;;;15.10;;
35990;SDS011;22064;42.672;23.282;2023-06-05T05:25:43;24.88;;;14.30;;
35990;SDS011;22064;42.672;23.282;2023-06-05T05:28:09;26.13;;;15.65;;
35990;SDS011;22064;42.672;23.282;2023-06-05T05:30:35;24.17;;;14.13;;
35990;SDS011;22064;42.672;23.282;2023-06-05T05:33:01;26.65;;;15.60;;
35990;SDS011;22064;42.672;23.282;2023-06-05T05:35:27;27.40;;;14.93;;
35990;SDS011;22064;42.672;23.282;2023-06-05T05:37:53;25.58;;;14.00;;
35990;SDS011;22064;42.672;23.282;2023-06-05T05:40:19;27.17;;;14.73;;
35990;SDS011;22064;42.672;23.282;2023-06-05T05:42:46;22.80;;;13.32;;
35990;SDS011;22064;42.672;23.282;2023-06-05T05:45:11;25.67;;;13.77;;
35990;SDS011;22064;42.672;23.282;2023-06-05T05:47:37;26.50;;;15.13;;
35990;SDS011;22064;42.672;23.282;2023-06-05T05:50:04;22.42;;;13.43;;
35990;SDS011;22064;42.672;23.282;2023-06-05T05:52:30;24.58;;;14.10;;
35990;SDS011;22064;42.672;23.282;2023-06-05T05:54:57;24.20;;;13.50;;
35990;SDS011;22064;42.672;23.282;2023-06-05T05:57:25;24.48;;;13.48;;
35990;SDS011;22064;42.672;23.282;2023-06-05T05:59:51;24.23;;;12.88;;
35990;SDS011;22064;42.672;23.282;2023-06-05T06:02:17;23.05;;;12.55;;
35990;SDS011;22064;42.672;23.282;2023-06-05T06:04:43;23.50;;;12.00;;
35990;SDS011;22064;42.672;23.282;2023-06-05T06:07:12;23.33;;;12.52;;
35990;SDS011;22064;42.672;23.282;2023-06-05T06:09:37;24.73;;;13.68;;
35990;SDS011;22064;42.672;23.282;2023-06-05T06:12:04;22.48;;;11.43;;
35990;SDS011;22064;42.672;23.282;2023-06-05T06:14:34;19.40;;;11.35;;
35990;SDS011;22064;42.672;23.282;2023-06-05T06:17:00;19.25;;;10.38;;
35990;SDS011;22064;42.672;23.282;2023-06-05T06:19:28;21.67;;;11.18;;
35990;SDS011;22064;42.672;23.282;2023-06-05T06:21:54;21.23;;;11.60;;
35990;SDS011;22064;42.672;23.282;2023-06-05T06:24:20;21.98;;;10.55;;
35990;SDS011;22064;42.672;23.282;2023-06-05T06:26:47;22.30;;;11.35;;
35990;SDS011;22064;42.672;23.282;2023-06-05T06:29:19;21.00;;;11.13;;
35990;SDS011;22064;42.672;23.282;2023-06-05T06:31:49;20.25;;;10.98;;
35990;SDS011;22064;42.672;23.282;2023-06-05T06:34:15;22.48;;;11.70;;
35990;SDS011;22064;42.672;23.282;2023-06-05T06:36:42;24.25;;;11.70;;
35990;SDS011;22064;42.672;23.282;2023-06-05T06:39:10;23.10;;;11.07;;
35990;SDS011;22064;42.672;23.282;2023-06-05T06:41:36;21.17;;;11.13;;
35990;SDS011;22064;42.672;23.282;2023-06-05T06:44:03;20.17;;;11.43;;
35990;SDS011;22064;42.672;23.282;2023-06-05T06:46:29;22.35;;;11.85;;
35990;SDS011;22064;42.672;23.282;2023-06-05T06:48:56;20.85;;;11.27;;
35990;SDS011;22064;42.672;23.282;2023-06-05T06:51:22;22.23;;;10.93;;
35990;SDS011;22064;42.672;23.282;2023-06-05T06:53:48;19.10;;;10.60;;
35990;SDS011;22064;42.672;23.282;2023-06-05T06:56:14;26.50;;;12.25;;
35990;SDS011;22064;42.672;23.282;2023-06-05T06:58:44;23.50;;;12.45;;
35990;SDS011;22064;42.672;23.282;2023-06-05T07:01:14;23.10;;;11.40;;
35990;SDS011;22064;42.672;23.282;2023-06-05T07:03:40;25.67;;;12.52;;
35990;SDS011;22064;42.672;23.282;2023-06-05T07:06:08;25.83;;;11.98;;
35990;SDS011;22064;42.672;23.282;2023-06-05T07:08:34;22.20;;;12.00;;
35990;SDS011;22064;42.672;23.282;2023-06-05T07:11:01;29.20;;;12.88;;
35990;SDS011;22064;42.672;23.282;2023-06-05T07:13:27;21.83;;;11.60;;
35990;SDS011;22064;42.672;23.282;2023-06-05T07:15:53;21.83;;;11.38;;
35990;SDS011;22064;42.672;23.282;2023-06-05T07:18:18;20.73;;;10.77;;
35990;SDS011;22064;42.672;23.282;2023-06-05T07:20:45;22.05;;;11.18;;
35990;SDS011;22064;42.672;23.282;2023-06-05T07:23:11;24.90;;;12.52;;
35990;SDS011;22064;42.672;23.282;2023-06-05T07:25:37;25.00;;;12.95;;
35990;SDS011;22064;42.672;23.282;2023-06-05T07:28:09;24.98;;;12.20;;
35990;SDS011;22064;42.672;23.282;2023-06-05T07:30:39;23.60;;;12.95;;
35990;SDS011;22064;42.672;23.282;2023-06-05T07:33:08;22.33;;;12.40;;
35990;SDS011;22064;42.672;23.282;2023-06-05T07:35:35;24.98;;;12.63;;
35990;SDS011;22064;42.672;23.282;2023-06-05T07:38:01;23.42;;;12.27;;
35990;SDS011;22064;42.672;23.282;2023-06-05T07:40:27;23.17;;;12.35;;
35990;SDS011;22064;42.672;23.282;2023-06-05T07:42:52;23.90;;;12.80;;
35990;SDS011;22064;42.672;23.282;2023-06-05T07:45:18;23.38;;;12.30;;
35990;SDS011;22064;42.672;23.282;2023-06-05T07:47:44;24.13;;;12.68;;
35990;SDS011;22064;42.672;23.282;2023-06-05T07:50:10;22.00;;;12.38;;
35990;SDS011;22064;42.672;23.282;2023-06-05T07:52:36;22.58;;;11.75;;
35990;SDS011;22064;42.672;23.282;2023-06-05T07:55:03;22.42;;;11.82;;
35990;SDS011;22064;42.672;23.282;2023-06-05T07:57:29;20.95;;;11.52;;
35990;SDS011;22064;42.672;23.282;2023-06-05T07:59:55;24.45;;;11.85;;
35990;SDS011;22064;42.672;23.282;2023-06-05T08:02:21;21.83;;;11.55;;
35990;SDS011;22064;42.672;23.282;2023-06-05T08:04:49;22.85;;;11.77;;
35990;SDS011;22064;42.672;23.282;2023-06-05T08:07:15;26.17;;;12.52;;
35990;SDS011;22064;42.672;23.282;2023-06-05T08:09:41;24.13;;;12.15;;
35990;SDS011;22064;42.672;23.282;2023-06-05T08:12:07;21.15;;;11.65;;
35990;SDS011;22064;42.672;23.282;2023-06-05T08:14:33;24.23;;;11.20;;
35990;SDS011;22064;42.672;23.282;2023-06-05T08:17:00;21.35;;;10.80;;
35990;SDS011;22064;42.672;23.282;2023-06-05T08:19:26;21.27;;;10.98;;
35990;SDS011;22064;42.672;23.282;2023-06-05T08:21:52;20.92;;;11.40;;
35990;SDS011;22064;42.672;23.282;2023-06-05T08:24:22;23.90;;;11.45;;
35990;SDS011;22064;42.672;23.282;2023-06-05T08:26:48;24.30;;;12.07;;
35990;SDS011;22064;42.672;23.282;2023-06-05T08:29:14;24.08;;;11.48;;
35990;SDS011;22064;42.672;23.282;2023-06-05T08:31:40;23.67;;;12.23;;
35990;SDS011;22064;42.672;23.282;2023-06-05T08:34:06;20.23;;;11.35;;
35990;SDS011;22064;42.672;23.282;2023-06-05T08:36:33;21.48;;;11.55;;
35990;SDS011;22064;42.672;23.282;2023-06-05T08:39:01;21.85;;;11.60;;
35990;SDS011;22064;42.672;23.282;2023-06-05T08:41:29;23.27;;;11.32;;
35990;SDS011;22064;42.672;23.282;2023-06-05T08:43:56;21.13;;;11.30;;
35990;SDS011;22064;42.672;23.282;2023-06-05T08:46:22;22.77;;;11.05;;
35990;SDS011;22064;42.672;23.282;2023-06-05T08:48:53;19.35;;;10.68;;
35990;SDS011;22064;42.672;23.282;2023-06-05T08:51:21;21.85;;;10.70;;
35990;SDS011;22064;42.672;23.282;2023-06-05T08:53:48;21.08;;;10.15;;
35990;SDS011;22064;42.672;23.282;2023-06-05T08:56:15;22.23;;;10.55;;
35990;SDS011;22064;42.672;23.282;2023-06-05T08:58:41;22.13;;;11.18;;
35990;SDS011;22064;42.672;23.282;2023-06-05T09:01:09;25.20;;;11.73;;
35990;SDS011;22064;42.672;23.282;2023-06-05T09:03:35;21.52;;;11.60;;
35990;SDS011;22064;42.672;23.282;2023-06-05T09:06:02;20.10;;;10.40;;
35990;SDS011;22064;42.672;23.282;2023-06-05T09:08:29;22.50;;;11.38;;
35990;SDS011;22064;42.672;23.282;2023-06-05T09:13:46;23.65;;;11.10;;
35990;SDS011;22064;42.672;23.282;2023-06-05T09:16:12;22.98;;;11.80;;
35990;SDS011;22064;42.672;23.282;2023-06-05T09:18:51;26.02;;;11.60;;
35990;SDS011;22064;42.672;23.282;2023-06-05T09:21:18;20.00;;;9.95;;
35990;SDS011;22064;42.672;23.282;2023-06-05T09:23:44;21.50;;;11.02;;
35990;SDS011;22064;42.672;23.282;2023-06-05T09:26:10;22.75;;;10.40;;
35990;SDS011;22064;42.672;23.282;2023-06-05T09:28:52;20.80;;;10.63;;
35990;SDS011;22064;42.672;23.282;2023-06-05T09:31:20;19.48;;;10.60;;
35990;SDS011;22064;42.672;23.282;2023-06-05T09:33:56;19.65;;;9.48;;
35990;SDS011;22064;42.672;23.282;2023-06-05T09:36:23;16.98;;;9.63;;
35990;SDS011;22064;42.672;23.282;2023-06-05T09:38:51;18.50;;;9.10;;
35990;SDS011;22064;42.672;23.282;2023-06-05T09:41:17;19.65;;;9.82;;
35990;SDS011;22064;42.672;23.282;2023-06-05T09:43:46;19.38;;;9.27;;
35990;SDS011;22064;42.672;23.282;2023-06-05T09:46:15;19.58;;;9.98;;
35990;SDS011;22064;42.672;23.282;2023-06-05T09:48:42;20.42;;;10.98;;
35990;SDS011;22064;42.672;23.282;2023-06-05T09:51:15;20.67;;;10.68;;
35990;SDS011;22064;42.672;23.282;2023-06-05T09:53:44;21.55;;;10.68;;
35990;SDS011;22064;42.672;23.282;2023-06-05T09:56:12;21.45;;;11.07;;
35990;SDS011;22064;42.672;23.282;2023-06-05T09:58:49;20.75;;;10.40;;
35990;SDS011;22064;42.672;23.282;2023-06-05T10:01:19;21.48;;;10.95;;
35990;SDS011;22064;42.672;23.282;2023-06-05T10:03:58;20.63;;;10.30;;
35990;SDS011;22064;42.672;23.282;2023-06-05T10:06:26;21.38;;;10.18;;
35990;SDS011;22064;42.672;23.282;2023-06-05T10:08:53;20.45;;;9.85;;
35990;SDS011;22064;42.672;23.282;2023-06-05T10:11:23;20.58;;;9.85;;
35990;SDS011;22064;42.672;23.282;2023-06-05T10:13:50;19.17;;;10.27;;
35990;SDS011;22064;42.672;23.282;2023-06-05T10:16:17;20.20;;;9.70;;
35990;SDS011;22064;42.672;23.282;2023-06-05T10:18:47;18.85;;;9.57;;
35990;SDS011;22064;42.672;23.282;2023-06-05T10:21:17;19.55;;;10.20;;
35990;SDS011;22064;42.672;23.282;2023-06-05T10:38:26;17.17;;;9.43;;
35990;SDS011;22064;42.672;23.282;2023-06-05T10:41:00;19.00;;;9.20;;
35990;SDS011;22064;42.672;23.282;2023-06-05T10:43:28;18.60;;;8.63;;
35990;SDS011;22064;42.672;23.282;2023-06-05T10:46:01;16.80;;;8.93;;
35990;SDS011;22064;42.672;23.282;2023-06-05T10:49:06;15.23;;;8.30;;
35990;SDS011;22064;42.672;23.282;2023-06-05T10:51:46;15.73;;;7.82;;
35990;SDS011;22064;42.672;23.282;2023-06-05T10:59:29;15.07;;;8.02;;
35990;SDS011;22064;42.672;23.282;2023-06-05T11:07:19;14.18;;;7.22;;
35990;SDS011;22064;42.672;23.282;2023-06-05T11:12:27;14.02;;;6.30;;
35990;SDS011;22064;42.672;23.282;2023-06-05T11:15:13;12.20;;;6.43;;
35990;SDS011;22064;42.672;23.282;2023-06-05T11:17:42;12.32;;;6.45;;
35990;SDS011;22064;42.672;23.282;2023-06-05T11:27:50;9.20;;;5.43;;
35990;SDS011;22064;42.672;23.282;2023-06-05T11:30:17;11.63;;;6.00;;
35990;SDS011;22064;42.672;23.282;2023-06-05T11:32:46;10.00;;;6.20;;
35990;SDS011;22064;42.672;23.282;2023-06-05T11:35:12;10.93;;;6.13;;
35990;SDS011;22064;42.672;23.282;2023-06-05T11:37:39;10.77;;;5.80;;
35990;SDS011;22064;42.672;23.282;2023-06-05T11:40:05;10.40;;;6.20;;
35990;SDS011;22064;42.672;23.282;2023-06-05T11:42:38;9.38;;;5.85;;
35990;SDS011;22064;42.672;23.282;2023-06-05T11:45:14;11.07;;;6.13;;
35990;SDS011;22064;42.672;23.282;2023-06-05T11:47:40;12.60;;;6.10;;
35990;SDS011;22064;42.672;23.282;2023-06-05T11:50:07;17.65;;;7.13;;
35990;SDS011;22064;42.672;23.282;2023-06-05T11:52:33;11.63;;;6.22;;
35990;SDS011;22064;42.672;23.282;2023-06-05T11:55:16;9.80;;;5.75;;
35990;SDS011;22064;42.672;23.282;2023-06-05T11:57:45;10.85;;;5.97;;
35990;SDS011;22064;42.672;23.282;2023-06-05T12:00:26;12.32;;;6.03;;
35990;SDS011;22064;42.672;23.282;2023-06-05T12:02:52;9.85;;;5.80;;
35990;SDS011;22064;42.672;23.282;2023-06-05T12:05:19;10.07;;;5.80;;
35990;SDS011;22064;42.672;23.282;2023-06-05T12:07:45;11.32;;;6.30;;
35990;SDS011;22064;42.672;23.282;2023-06-05T12:10:11;12.93;;;6.00;;
35990;SDS011;22064;42.672;23.282;2023-06-05T12:12:50;8.57;;;5.38;;
35990;SDS011;22064;42.672;23.282;2023-06-05T12:15:17;12.05;;;5.85;;
35990;SDS011;22064;42.672;23.282;2023-06-05T12:20:16;9.57;;;5.38;;
35990;SDS011;22064;42.672;23.282;2023-06-05T12:22:43;11.77;;;5.68;;
35990;SDS011;22064;42.672;23.282;2023-06-05T12:25:19;13.35;;;6.25;;
35990;SDS011;22064;42.672;23.282;2023-06-05T12:27:46;9.32;;;5.55;;
35990;SDS011;22064;42.672;23.282;2023-06-05T12:30:12;9.60;;;5.60;;
35990;SDS011;22064;42.672;23.282;2023-06-05T12:32:41;8.63;;;5.05;;
35990;SDS011;22064;42.672;23.282;2023-06-05T12:35:23;9.07;;;5.35;;
35990;SDS011;22064;42.672;23.282;2023-06-05T12:37:58;9.73;;;5.93;;
35990;SDS011;22064;42.672;23.282;2023-06-05T12:40:25;10.80;;;6.32;;
35990;SDS011;22064;42.672;23.282;2023-06-05T12:42:51;9.00;;;5.55;;
35990;SDS011;22064;42.672;23.282;2023-06-05T12:45:17;9.50;;;5.38;;
35990;SDS011;22064;42.672;23.282;2023-06-05T12:47:43;11.07;;;5.60;;
35990;SDS011;22064;42.672;23.282;2023-06-05T12:50:10;9.15;;;5.50;;
35990;SDS011;22064;42.672;23.282;2023-06-05T12:52:39;11.05;;;5.38;;
35990;SDS011;22064;42.672;23.282;2023-06-05T12:55:06;10.32;;;5.50;;
35990;SDS011;22064;42.672;23.282;2023-06-05T12:57:33;8.10;;;5.00;;
35990;SDS011;22064;42.672;23.282;2023-06-05T13:00:02;11.38;;;6.18;;
35990;SDS011;22064;42.672;23.282;2023-06-05T13:02:41;9.02;;;5.35;;
35990;SDS011;22064;42.672;23.282;2023-06-05T13:05:10;10.52;;;6.05;;
35990;SDS011;22064;42.672;23.282;2023-06-05T13:07:37;12.07;;;5.50;;
35990;SDS011;22064;42.672;23.282;2023-06-05T13:10:05;9.10;;;5.97;;
35990;SDS011;22064;42.672;23.282;2023-06-05T13:12:31;7.88;;;4.88;;
35990;SDS011;22064;42.672;23.282;2023-06-05T13:14:58;6.90;;;5.10;;
35990;SDS011;22064;42.672;23.282;2023-06-05T13:17:25;7.35;;;5.55;;
35990;SDS011;22064;42.672;23.282;2023-06-05T13:19:51;9.73;;;5.55;;
35990;SDS011;22064;42.672;23.282;2023-06-05T13:22:17;9.38;;;5.15;;
35990;SDS011;22064;42.672;23.282;2023-06-05T13:24:43;7.53;;;4.70;;
35990;SDS011;22064;42.672;23.282;2023-06-05T13:27:09;8.73;;;5.32;;
35990;SDS011;22064;42.672;23.282;2023-06-05T13:29:36;8.63;;;5.20;;
35990;SDS011;22064;42.672;23.282;2023-06-05T13:32:01;8.30;;;5.00;;
35990;SDS011;22064;42.672;23.282;2023-06-05T13:34:28;8.15;;;4.97;;
35990;SDS011;22064;42.672;23.282;2023-06-05T13:36:54;7.80;;;4.68;;
35990;SDS011;22064;42.672;23.282;2023-06-05T13:39:20;7.38;;;4.93;;
35990;SDS011;22064;42.672;23.282;2023-06-05T13:41:46;10.40;;;5.18;;
35990;SDS011;22064;42.672;23.282;2023-06-05T13:44:12;8.05;;;5.13;;
35990;SDS011;22064;42.672;23.282;2023-06-05T13:46:37;10.13;;;5.55;;
35990;SDS011;22064;42.672;23.282;2023-06-05T13:49:05;9.13;;;5.38;;
35990;SDS011;22064;42.672;23.282;2023-06-05T13:51:31;9.80;;;5.40;;
35990;SDS011;22064;42.672;23.282;2023-06-05T13:53:57;9.10;;;4.65;;
35990;SDS011;22064;42.672;23.282;2023-06-05T13:56:24;8.45;;;5.00;;
35990;SDS011;22064;42.672;23.282;2023-06-05T13:58:50;6.43;;;4.70;;
35990;SDS011;22064;42.672;23.282;2023-06-05T14:01:18;8.20;;;4.95;;
35990;SDS011;22064;42.672;23.282;2023-06-05T14:03:44;9.88;;;5.00;;
35990;SDS011;22064;42.672;23.282;2023-06-05T14:06:12;8.32;;;5.28;;
35990;SDS011;22064;42.672;23.282;2023-06-05T14:08:38;9.57;;;5.05;;
35990;SDS011;22064;42.672;23.282;2023-06-05T14:11:04;18.20;;;11.05;;
35990;SDS011;22064;42.672;23.282;2023-06-05T14:13:30;9.93;;;5.88;;
35990;SDS011;22064;42.672;23.282;2023-06-05T14:15:56;12.02;;;5.30;;
35990;SDS011;22064;42.672;23.282;2023-06-05T14:18:24;9.05;;;5.53;;
35990;SDS011;22064;42.672;23.282;2023-06-05T14:20:51;8.50;;;5.05;;
35990;SDS011;22064;42.672;23.282;2023-06-05T14:23:17;8.18;;;5.22;;
35990;SDS011;22064;42.672;23.282;2023-06-05T14:25:45;11.13;;;5.72;;
35990;SDS011;22064;42.672;23.282;2023-06-05T14:28:11;13.43;;;6.57;;
35990;SDS011;22064;42.672;23.282;2023-06-05T14:30:37;8.18;;;5.18;;
35990;SDS011;22064;42.672;23.282;2023-06-05T14:33:03;7.88;;;5.03;;
35990;SDS011;22064;42.672;23.282;2023-06-05T14:35:29;8.55;;;5.55;;
35990;SDS011;22064;42.672;23.282;2023-06-05T14:37:55;9.25;;;5.88;;
35990;SDS011;22064;42.672;23.282;2023-06-05T14:40:21;8.90;;;5.13;;
35990;SDS011;22064;42.672;23.282;2023-06-05T14:42:49;9.13;;;5.78;;
35990;SDS011;22064;42.672;23.282;2023-06-05T14:45:15;10.88;;;5.93;;
35990;SDS011;22064;42.672;23.282;2023-06-05T14:47:41;10.13;;;5.82;;
35990;SDS011;22064;42.672;23.282;2023-06-05T14:50:08;10.45;;;5.70;;
35990;SDS011;22064;42.672;23.282;2023-06-05T14:52:34;11.30;;;5.88;;
35990;SDS011;22064;42.672;23.282;2023-06-05T14:55:01;8.20;;;5.35;;
35990;SDS011;22064;42.672;23.282;2023-06-05T14:57:28;9.48;;;5.50;;